Auburn Lewiston Municipal Airport


Codes: KLEW/
Name: Auburn Lewiston Municipal Airport
City: Auburn/Lewiston
Country: United States
Elevation: 288 ft.

Photos at Auburn Lewiston Municipal Airport


   Photos courtesy of SpottingLog. You can add your own sightings and photos by signing up for a free trial today.



No photos found.

Weather at Auburn Lewiston Municipal Airport


Time (UTC)DescriptionTempratureWindCloud coverageVisibilityPressureHumidity
18-Apr-2024 00:00Scattered Clouds10°C4 mph, SE33%10000m1020hPa55%
18-Apr-2024 03:00Broken Clouds7°C2 mph, W67%10000m1021hPa67%
18-Apr-2024 06:00Overcast Clouds4°C4 mph, NE100%10000m1022hPa81%
18-Apr-2024 09:00Overcast Clouds3°C4 mph, NE100%10000m1023hPa82%
18-Apr-2024 12:00Overcast Clouds5°C7 mph, NE100%10000m1023hPa69%
18-Apr-2024 15:00Overcast Clouds11°C7 mph, SE100%10000m1023hPa52%
18-Apr-2024 18:00Overcast Clouds12°C9 mph, SE95%10000m1022hPa49%
18-Apr-2024 21:00Broken Clouds10°C9 mph, SE79%10000m1022hPa55%
19-Apr-2024 00:00Overcast Clouds6°C4 mph, S89%10000m1023hPa77%
19-Apr-2024 03:00Light Rain5°C4 mph, SW100%10000m1023hPa94%
19-Apr-2024 06:00Light Rain4°C2 mph, S100%10000m1023hPa95%
19-Apr-2024 09:00Overcast Clouds4°C2 mph, S98%10000m1023hPa94%
19-Apr-2024 12:00Overcast Clouds5°C4 mph, S99%10000m1023hPa92%
19-Apr-2024 15:00Overcast Clouds6°C7 mph, S100%10000m1022hPa79%
19-Apr-2024 18:00Overcast Clouds10°C9 mph, S100%10000m1020hPa58%
19-Apr-2024 21:00Overcast Clouds9°C11 mph, S100%10000m1018hPa59%
20-Apr-2024 00:00Light Rain5°C9 mph, S100%10000m1018hPa83%
20-Apr-2024 03:00Light Rain6°C9 mph, S100%10000m1016hPa87%
20-Apr-2024 06:00Overcast Clouds6°C9 mph, S100%10000m1014hPa92%
20-Apr-2024 09:00Overcast Clouds7°C9 mph, SW100%10000m1013hPa95%
20-Apr-2024 12:00Overcast Clouds9°C7 mph, SW100%10000m1013hPa84%
20-Apr-2024 15:00Overcast Clouds12°C4 mph, SW100%10000m1012hPa56%
20-Apr-2024 18:00Overcast Clouds14°C11 mph, SW100%10000m1009hPa40%
20-Apr-2024 21:00Overcast Clouds12°C11 mph, SW100%10000m1008hPa51%
21-Apr-2024 00:00Light Rain9°C9 mph, W100%10000m1009hPa72%
21-Apr-2024 03:00Light Rain6°C7 mph, W99%10000m1009hPa85%
21-Apr-2024 06:00Broken Clouds3°C4 mph, W70%10000m1009hPa91%
21-Apr-2024 09:00Clear Sky2°C4 mph, W7%10000m1010hPa91%
21-Apr-2024 12:00Clear Sky6°C7 mph, W5%10000m1011hPa71%
21-Apr-2024 15:00Clear Sky11°C7 mph, W9%10000m1011hPa41%
21-Apr-2024 18:00Scattered Clouds13°C9 mph, W45%10000m1010hPa34%
21-Apr-2024 21:00Overcast Clouds12°C9 mph, W100%10000m1009hPa37%
22-Apr-2024 00:00Broken Clouds6°C4 mph, W68%10000m1011hPa63%
22-Apr-2024 03:00Clear Sky4°C4 mph, SW1%10000m1012hPa69%
22-Apr-2024 06:00Clear Sky3°C7 mph, SW0%10000m1011hPa70%
22-Apr-2024 09:00Clear Sky2°C7 mph, SW0%10000m1012hPa73%
22-Apr-2024 12:00Clear Sky6°C7 mph, W0%10000m1013hPa59%
22-Apr-2024 15:00Few Clouds12°C4 mph, W11%10000m1013hPa41%
22-Apr-2024 18:00Scattered Clouds13°C9 mph, NW45%10000m1013hPa36%
22-Apr-2024 21:00Broken Clouds12°C9 mph, NW74%10000m1014hPa34%